createdAt,value
2018-01-11T00:00:31.971Z,88.80
2018-01-11T00:01:32.033Z,88.90
2018-01-11T00:02:32.033Z,86.60
2018-01-11T00:03:32.083Z,88.00
2018-01-11T00:04:32.096Z,90.90
2018-01-11T00:05:32.159Z,90.50
2018-01-11T00:06:32.168Z,90.90
2018-01-11T00:07:32.205Z,89.00
2018-01-11T00:08:32.810Z,89.10
2018-01-11T00:09:32.291Z,87.10
2018-01-11T00:10:32.290Z,90.10
2018-01-11T00:11:32.337Z,91.50
2018-01-11T00:12:32.344Z,88.20
2018-01-11T00:13:32.408Z,90.60
2018-01-11T00:14:32.419Z,89.90
2018-01-11T00:15:32.467Z,88.80
2018-01-11T00:16:32.480Z,91.30
2018-01-11T00:17:32.533Z,87.90
2018-01-11T00:18:32.542Z,87.70
2018-01-11T00:19:32.595Z,88.50
2018-01-11T00:20:32.593Z,89.10
2018-01-11T00:21:32.664Z,87.50
2018-01-11T00:22:32.658Z,88.10
2018-01-11T00:23:32.720Z,85.70
2018-01-11T00:24:32.717Z,84.80
2018-01-11T00:25:32.782Z,90.70
2018-01-11T00:26:32.794Z,88.70
2018-01-11T00:27:32.846Z,89.10
2018-01-11T00:28:32.847Z,88.40
2018-01-11T00:29:32.913Z,87.50
2018-01-11T00:30:32.909Z,88.00
2018-01-11T00:31:32.967Z,85.60
2018-01-11T00:32:32.969Z,85.80
2018-01-11T00:33:33.039Z,86.80
2018-01-11T00:34:33.140Z,87.80
2018-01-11T00:35:33.083Z,87.90
2018-01-11T00:36:33.106Z,88.20
2018-01-11T00:37:33.164Z,87.60
2018-01-11T00:38:33.158Z,85.40
2018-01-11T00:39:33.216Z,86.40
2018-01-11T00:40:33.232Z,90.30
2018-01-11T00:41:33.284Z,88.80
2018-01-11T00:42:33.280Z,91.30
2018-01-11T00:43:33.342Z,89.00
2018-01-11T00:44:33.350Z,85.70
2018-01-11T00:45:33.414Z,86.90
2018-01-11T00:46:33.404Z,88.80
2018-01-11T00:47:33.455Z,88.50
2018-01-11T00:48:33.480Z,90.60
2018-01-11T00:49:33.539Z,93.70
2018-01-11T00:50:33.539Z,97.70
2018-01-11T00:51:33.583Z,95.80
2018-01-11T00:52:33.591Z,95.00
2018-01-11T00:53:33.663Z,99.20
2018-01-11T00:54:33.665Z,101.30
2018-01-11T00:55:33.705Z,100.10
2018-01-11T00:56:33.726Z,100.70
2018-01-11T00:57:33.778Z,97.50
2018-01-11T00:58:33.782Z,91.90
2018-01-11T00:59:33.845Z,96.90
2018-01-11T01:00:33.845Z,97.30
2018-01-11T01:01:33.914Z,93.10
2018-01-11T01:02:33.904Z,102.30
2018-01-11T01:03:33.958Z,99.10
2018-01-11T01:04:33.970Z,100.30
2018-01-11T01:05:34.045Z,99.30
2018-01-11T01:06:34.039Z,100.60
2018-01-11T01:07:34.079Z,100.00
2018-01-11T01:08:34.100Z,104.70
2018-01-11T01:09:34.155Z,108.80
2018-01-11T01:10:34.221Z,115.90
2018-01-11T01:11:34.242Z,110.90
2018-01-11T01:12:34.231Z,112.10
2018-01-11T01:13:34.329Z,107.20
2018-01-11T01:14:34.308Z,105.60
2018-01-11T01:15:34.351Z,109.40
2018-01-11T01:16:34.344Z,109.80
2018-01-11T01:17:34.434Z,107.30
2018-01-11T01:18:34.409Z,109.50
2018-01-11T01:19:34.458Z,110.30
2018-01-11T01:20:34.475Z,110.40
2018-01-11T01:21:34.530Z,110.20
2018-01-11T01:22:34.537Z,114.30
2018-01-11T01:23:34.582Z,118.40
2018-01-11T01:24:34.594Z,119.80
2018-01-11T01:25:34.679Z,125.10
2018-01-11T01:26:34.704Z,120.00
2018-01-11T01:27:34.707Z,118.00
2018-01-11T01:28:34.795Z,112.50
2018-01-11T01:29:34.834Z,111.30
2018-01-11T01:30:34.834Z,115.10
2018-01-11T01:31:34.874Z,111.90
2018-01-11T01:32:34.910Z,113.80
2018-01-11T01:33:35.017Z,115.10
2018-01-11T01:34:35.002Z,116.80
2018-01-11T01:35:35.283Z,118.20
2018-01-11T01:36:34.989Z,119.40
2018-01-11T01:37:35.117Z,120.30
2018-01-11T01:38:35.115Z,121.10
2018-01-11T01:39:35.136Z,117.60
2018-01-11T01:40:35.152Z,113.60
2018-01-11T01:41:35.185Z,120.40
2018-01-11T01:42:35.224Z,121.10
2018-01-11T01:43:35.289Z,124.80
2018-01-11T01:44:35.232Z,129.00
2018-01-11T01:45:35.316Z,128.50
2018-01-11T01:46:35.289Z,131.40
2018-01-11T01:47:35.340Z,127.70
2018-01-11T01:48:35.340Z,124.10
2018-01-11T01:49:35.410Z,135.30
2018-01-11T01:50:35.415Z,132.00
2018-01-11T01:51:35.455Z,127.00
2018-01-11T01:52:35.463Z,129.20
2018-01-11T01:53:35.536Z,130.50
2018-01-11T01:54:35.536Z,128.70
2018-01-11T01:55:35.597Z,126.20
2018-01-11T01:56:35.600Z,127.60
2018-01-11T01:57:35.742Z,126.00
2018-01-11T01:58:35.685Z,130.40
2018-01-11T01:59:35.729Z,110.80
2018-01-11T02:00:35.761Z,115.50
2018-01-11T02:01:35.822Z,120.40
2018-01-11T02:02:35.855Z,123.30
2018-01-11T02:03:35.899Z,133.80
2018-01-11T02:04:35.926Z,134.50
2018-01-11T02:05:35.960Z,146.70
2018-01-11T02:06:35.961Z,141.90
2018-01-11T02:07:36.002Z,160.40
2018-01-11T02:08:35.981Z,173.50
2018-01-11T02:09:36.094Z,183.50
2018-01-11T02:10:36.036Z,195.30
2018-01-11T02:11:36.073Z,197.40
2018-01-11T02:12:36.089Z,201.40
2018-01-11T02:13:36.151Z,202.50
2018-01-11T02:14:36.148Z,201.80
2018-01-11T02:15:36.202Z,200.30
2018-01-11T02:16:36.223Z,197.90
2018-01-11T02:17:36.283Z,194.40
2018-01-11T02:18:36.274Z,195.60
2018-01-11T02:19:36.334Z,191.20
2018-01-11T02:20:36.336Z,192.80
2018-01-11T02:21:36.415Z,191.10
2018-01-11T02:22:36.398Z,189.60
2018-01-11T02:23:36.453Z,189.40
2018-01-11T02:24:36.464Z,190.10
2018-01-11T02:25:36.526Z,180.40
2018-01-11T02:26:36.535Z,187.70
2018-01-11T02:27:36.583Z,188.00
2018-01-11T02:28:36.597Z,185.80
2018-01-11T02:29:36.662Z,183.00
2018-01-11T02:30:36.648Z,182.30
2018-01-11T02:31:36.680Z,185.30
2018-01-11T02:32:36.734Z,180.50
2018-01-11T02:33:36.753Z,182.20
2018-01-11T02:34:36.807Z,185.40
2018-01-11T02:35:36.815Z,184.60
2018-01-11T02:36:36.865Z,184.80
2018-01-11T02:37:36.876Z,188.30
2018-01-11T02:38:36.935Z,183.40
2018-01-11T02:39:36.941Z,182.70
2018-01-11T02:40:37.151Z,184.90
2018-01-11T02:41:37.001Z,182.60
2018-01-11T02:42:37.067Z,184.10
2018-01-11T02:43:37.057Z,209.80
2018-01-11T02:44:37.107Z,226.80
2018-01-11T02:45:37.118Z,229.00
2018-01-11T02:46:37.184Z,628.20
2018-01-11T02:47:37.181Z,501.90
2018-01-11T02:48:37.231Z,406.60
2018-01-11T02:49:37.255Z,329.90
2018-01-11T02:50:37.316Z,291.10
2018-01-11T02:51:37.317Z,241.40
2018-01-11T02:52:37.354Z,221.50
2018-01-11T02:53:37.369Z,208.80
2018-01-11T02:54:37.433Z,206.20
2018-01-11T02:55:37.443Z,211.30
2018-01-11T02:56:37.482Z,206.50
2018-01-11T02:57:37.499Z,194.80
2018-01-11T02:58:37.556Z,191.70
2018-01-11T02:59:37.558Z,187.30
2018-01-11T03:00:37.616Z,191.00
2018-01-11T03:01:38.189Z,197.60
2018-01-11T03:02:37.679Z,192.80
2018-01-11T03:03:37.679Z,188.40
2018-01-11T03:04:37.737Z,196.60
2018-01-11T03:05:37.748Z,195.60
2018-01-11T03:06:37.803Z,197.40
2018-01-11T03:07:37.817Z,193.10
2018-01-11T03:08:37.852Z,203.00
2018-01-11T03:09:37.877Z,199.00
2018-01-11T03:10:37.934Z,200.70
2018-01-11T03:11:37.943Z,200.30
2018-01-11T03:12:37.982Z,203.50
2018-01-11T03:13:37.993Z,202.20
2018-01-11T03:14:38.163Z,207.10
2018-01-11T03:15:38.065Z,206.10
2018-01-11T03:16:38.105Z,211.80
2018-01-11T03:17:38.128Z,208.80
2018-01-11T03:18:38.181Z,200.90
2018-01-11T03:19:38.191Z,201.90
2018-01-11T03:20:38.243Z,200.40
2018-01-11T03:21:38.446Z,193.00
2018-01-11T03:22:38.304Z,195.70
2018-01-11T03:23:38.303Z,193.40
2018-01-11T03:24:38.955Z,196.80
2018-01-11T03:25:38.369Z,197.50
2018-01-11T03:26:38.439Z,199.90
2018-01-11T03:27:38.432Z,200.60
2018-01-11T03:28:38.490Z,200.50
2018-01-11T03:29:38.505Z,204.50
2018-01-11T03:30:38.569Z,202.50
2018-01-11T03:31:38.565Z,200.20
2018-01-11T03:32:38.613Z,198.80
2018-01-11T03:33:38.620Z,184.80
2018-01-11T03:34:38.682Z,180.20
2018-01-11T03:35:38.678Z,167.80
2018-01-11T03:36:38.730Z,171.10
2018-01-11T03:37:38.751Z,166.90
2018-01-11T03:38:38.817Z,162.50
2018-01-11T03:39:38.805Z,155.90
2018-01-11T03:40:38.865Z,151.30
2018-01-11T03:41:38.867Z,150.80
2018-01-11T03:42:38.944Z,150.00
2018-01-11T03:43:38.939Z,152.90
2018-01-11T03:44:39.284Z,151.30
2018-01-11T03:45:39.323Z,152.80
2018-01-11T03:46:39.065Z,153.70
2018-01-11T03:47:39.055Z,150.60
2018-01-11T03:48:39.115Z,155.00
2018-01-11T03:49:39.133Z,154.60
2018-01-11T03:50:39.181Z,156.60
2018-01-11T03:51:39.224Z,160.70
2018-01-11T03:52:39.250Z,170.30
2018-01-11T03:53:39.251Z,172.70
2018-01-11T03:54:39.324Z,177.70
2018-01-11T03:55:39.315Z,178.00
2018-01-11T03:56:39.371Z,195.20
2018-01-11T03:57:39.382Z,215.80
2018-01-11T03:58:39.432Z,208.80
2018-01-11T03:59:39.505Z,204.50
2018-01-11T04:00:39.492Z,190.80
2018-01-11T04:01:39.510Z,197.60
2018-01-11T04:02:39.600Z,193.80
2018-01-11T04:03:39.564Z,200.60
2018-01-11T04:04:39.607Z,192.80
2018-01-11T04:05:39.626Z,193.00
2018-01-11T04:06:39.688Z,191.20
2018-01-11T04:07:39.886Z,193.50
2018-01-11T04:08:39.742Z,191.20
2018-01-11T04:09:39.749Z,192.40
2018-01-11T04:10:39.810Z,190.70
2018-01-11T04:11:39.810Z,188.10
2018-01-11T04:12:39.868Z,195.80
2018-01-11T04:13:39.873Z,197.10
2018-01-11T04:14:39.914Z,200.00
2018-01-11T04:15:39.964Z,204.80
2018-01-11T04:16:39.972Z,202.10
2018-01-11T04:17:40.032Z,206.00
2018-01-11T04:18:40.031Z,205.50
2018-01-11T04:19:40.080Z,202.10
2018-01-11T04:20:40.098Z,199.00
2018-01-11T04:21:40.155Z,194.20
2018-01-11T04:22:40.161Z,197.60
2018-01-11T04:23:40.206Z,189.10
2018-01-11T04:24:40.223Z,181.60
2018-01-11T04:25:40.294Z,184.40
2018-01-11T04:26:40.295Z,181.80
2018-01-11T04:27:40.341Z,181.90
2018-01-11T04:28:40.353Z,182.80
2018-01-11T04:29:40.410Z,182.40
2018-01-11T04:30:40.516Z,181.70
2018-01-11T04:31:40.466Z,178.40
2018-01-11T04:32:40.468Z,180.40
2018-01-11T04:33:40.550Z,177.10
2018-01-11T04:34:40.533Z,180.00
2018-01-11T04:35:40.588Z,179.00
2018-01-11T04:36:41.201Z,174.70
2018-01-11T04:37:40.677Z,175.90
2018-01-11T04:38:40.658Z,176.90
2018-01-11T04:39:40.709Z,177.50
2018-01-11T04:40:40.727Z,180.10
2018-01-11T04:41:40.839Z,180.30
2018-01-11T04:42:40.793Z,174.60
2018-01-11T04:43:40.842Z,177.90
2018-01-11T04:44:40.852Z,178.40
2018-01-11T04:45:40.945Z,177.10
2018-01-11T04:46:40.921Z,179.10
2018-01-11T04:47:40.964Z,177.30
2018-01-11T04:48:40.970Z,170.50
2018-01-11T04:49:41.086Z,170.20
2018-01-11T04:51:41.496Z,164.50
2018-01-11T04:52:41.116Z,164.40
2018-01-11T04:53:41.139Z,155.80
2018-01-11T04:54:41.221Z,154.40
2018-01-11T04:55:41.918Z,154.10
2018-01-11T04:57:41.274Z,155.60
2018-01-11T04:58:41.305Z,150.20
2018-01-11T04:59:41.364Z,133.70
2018-01-11T05:00:41.351Z,132.20
2018-01-11T05:01:41.422Z,133.00
2018-01-11T05:02:41.419Z,128.00
2018-01-11T05:03:41.455Z,128.00
2018-01-11T05:04:41.544Z,130.80
2018-01-11T05:05:41.506Z,154.10
2018-01-11T05:06:41.565Z,151.70
2018-01-11T05:07:41.581Z,160.60
2018-01-11T05:08:41.678Z,138.30
2018-01-11T05:09:41.631Z,131.00
2018-01-11T05:10:41.684Z,127.70
2018-01-11T05:11:41.703Z,131.00
2018-01-11T05:12:41.774Z,131.20
2018-01-11T05:13:41.777Z,133.60
2018-01-11T05:14:41.822Z,128.40
2018-01-11T05:15:41.838Z,127.00
2018-01-11T05:16:41.938Z,109.70
2018-01-11T05:17:41.893Z,106.00
2018-01-11T05:18:41.948Z,107.70
2018-01-11T05:19:41.969Z,105.30
2018-01-11T05:20:42.059Z,97.90
2018-01-11T05:21:42.024Z,89.70
2018-01-11T05:23:42.102Z,87.70
2018-01-11T05:24:42.111Z,84.20
2018-01-11T05:25:42.211Z,83.80
2018-01-11T05:26:42.173Z,80.90
2018-01-11T05:27:42.229Z,80.40
2018-01-11T05:28:42.241Z,82.00
2018-01-11T05:29:42.330Z,82.30
2018-01-11T05:30:42.301Z,79.70
2018-01-11T05:31:42.356Z,82.60
2018-01-11T05:32:42.376Z,82.60
2018-01-11T05:33:42.460Z,82.20
2018-01-11T05:34:42.438Z,80.40
2018-01-11T05:35:42.477Z,82.60
2018-01-11T05:36:42.499Z,79.40
2018-01-11T05:37:42.575Z,78.70
2018-01-11T05:38:42.564Z,80.70
2018-01-11T05:39:42.604Z,79.80
2018-01-11T05:40:42.622Z,83.10
2018-01-11T05:41:42.888Z,86.30
2018-01-11T05:42:42.693Z,86.50
2018-01-11T05:43:42.732Z,85.80
2018-01-11T05:44:42.744Z,85.90
2018-01-11T05:46:43.100Z,93.20
2018-01-11T05:47:42.917Z,94.90
2018-01-11T05:48:42.914Z,87.00
2018-01-11T05:49:42.918Z,80.10
2018-01-11T05:50:43.033Z,69.50
2018-01-11T05:51:42.989Z,67.70
2018-01-11T05:52:43.041Z,68.80
2018-01-11T05:53:43.059Z,75.20
2018-01-11T05:54:43.168Z,76.70
2018-01-11T05:56:43.245Z,74.00
2018-01-11T05:57:43.708Z,76.30
2018-01-11T05:58:43.218Z,70.60
2018-01-11T05:59:43.334Z,72.30
2018-01-11T06:00:43.289Z,79.80
2018-01-11T06:01:43.347Z,88.70
2018-01-11T06:02:43.374Z,83.90
2018-01-11T06:03:43.514Z,80.40
2018-01-11T06:04:43.447Z,79.70
2018-01-11T06:05:43.484Z,77.80
2018-01-11T06:06:43.508Z,72.00
2018-01-11T06:07:43.638Z,74.40
2018-01-11T06:08:43.596Z,78.10
2018-01-11T06:09:43.628Z,73.60
2018-01-11T06:10:43.645Z,73.50
2018-01-11T06:11:43.793Z,72.80
2018-01-11T06:12:43.731Z,72.60
2018-01-11T06:13:43.780Z,65.00
2018-01-11T06:14:43.792Z,67.70
2018-01-11T06:15:43.955Z,65.60
2018-01-11T06:16:43.886Z,67.50
2018-01-11T06:17:43.935Z,64.80
2018-01-11T06:18:43.967Z,66.90
2018-01-11T06:19:44.084Z,69.20
2018-01-11T06:20:44.032Z,70.50
2018-01-11T06:21:44.093Z,69.60
2018-01-11T06:22:44.112Z,65.70
2018-01-11T06:23:44.240Z,66.40
2018-01-11T06:24:44.371Z,67.10
2018-01-11T06:25:44.229Z,68.00
2018-01-11T06:26:44.228Z,66.60
2018-01-11T06:27:44.478Z,63.50
2018-01-11T06:28:44.332Z,65.20
2018-01-11T06:29:44.380Z,61.70
2018-01-11T06:30:44.379Z,63.00
2018-01-11T06:31:44.546Z,65.40
2018-01-11T06:32:44.478Z,63.50
2018-01-11T06:33:44.524Z,65.90
2018-01-11T06:34:44.579Z,62.50
2018-01-11T06:35:44.709Z,58.30
2018-01-11T06:37:29.176Z,64.60
2018-01-11T06:38:29.107Z,63.00
2018-01-11T06:39:29.155Z,62.00
2018-01-11T06:40:29.186Z,64.70
2018-01-11T06:41:30.127Z,62.70
2018-01-11T06:42:29.288Z,62.70
2018-01-11T06:43:29.314Z,62.80
2018-01-11T06:44:29.322Z,65.30
2018-01-11T06:45:29.397Z,64.60
2018-01-11T06:46:29.412Z,65.50
2018-01-11T06:47:29.478Z,64.30
2018-01-11T06:48:29.514Z,66.60
2018-01-11T06:49:29.552Z,70.10
2018-01-11T06:50:29.580Z,69.00
2018-01-11T06:51:29.633Z,66.70
2018-01-11T06:52:29.613Z,69.60
2018-01-11T06:53:29.644Z,71.10
2018-01-11T06:54:29.705Z,69.80
2018-01-11T06:55:29.754Z,73.50
2018-01-11T06:56:29.764Z,72.40
2018-01-11T06:57:29.796Z,76.50
2018-01-11T06:58:31.232Z,75.20
2018-01-11T06:59:29.893Z,72.40
2018-01-11T07:00:29.939Z,69.90
2018-01-11T07:01:29.932Z,71.40
2018-01-11T07:02:29.995Z,72.70
2018-01-11T07:03:30.035Z,71.40
2018-01-11T07:04:30.076Z,71.70
2018-01-11T07:06:30.113Z,74.40
2018-01-11T07:07:30.150Z,76.80
2018-01-11T07:09:30.268Z,75.20
2018-01-11T07:10:30.257Z,73.80
2018-01-11T07:11:30.303Z,76.50
2018-01-11T07:12:30.442Z,77.20
2018-01-11T07:13:30.402Z,80.10
2018-01-11T07:14:30.436Z,81.10
2018-01-11T07:15:30.443Z,78.90
2018-01-11T07:16:30.501Z,80.90
2018-01-11T07:18:30.684Z,77.90
2018-01-11T07:19:30.614Z,78.50
2018-01-11T07:20:30.629Z,78.00
2018-01-11T07:21:30.692Z,79.00
2018-01-11T07:22:30.727Z,75.30
2018-01-11T07:23:30.767Z,81.80
2018-01-11T07:24:30.834Z,78.60
2018-01-11T07:25:30.846Z,81.10
2018-01-11T07:26:30.907Z,81.40
2018-01-11T07:27:30.947Z,78.90
2018-01-11T07:28:30.974Z,79.30
2018-01-11T07:29:31.004Z,82.40
2018-01-11T07:30:31.038Z,84.40
2018-01-11T07:31:31.067Z,80.70
2018-01-11T07:32:31.116Z,85.10
2018-01-11T07:33:31.297Z,81.60
2018-01-11T07:34:31.168Z,79.90
2018-01-11T07:35:31.220Z,79.30
2018-01-11T07:36:31.229Z,79.20
2018-01-11T07:37:31.267Z,78.30
2018-01-11T07:38:31.294Z,79.90
2018-01-11T07:39:31.369Z,79.40
2018-01-11T07:40:31.379Z,78.30
2018-01-11T07:41:31.411Z,80.80
2018-01-11T07:42:31.467Z,80.10
2018-01-11T07:43:31.481Z,78.10
2018-01-11T07:44:31.516Z,78.90
2018-01-11T07:45:31.559Z,79.60
2018-01-11T07:46:31.573Z,77.70
2018-01-11T07:47:31.618Z,79.50
2018-01-11T07:48:31.663Z,75.50
2018-01-11T07:49:31.657Z,77.80
2018-01-11T07:50:31.707Z,79.20
2018-01-11T07:51:31.755Z,80.80
2018-01-11T07:52:31.777Z,77.10
2018-01-11T07:54:31.906Z,75.10
2018-01-11T07:55:31.872Z,71.70
2018-01-11T07:56:31.928Z,72.20
2018-01-11T07:58:31.996Z,70.30
2018-01-11T07:59:32.030Z,69.00
2018-01-11T08:00:32.063Z,68.70
2018-01-11T08:01:32.083Z,67.30
2018-01-11T08:02:32.136Z,69.80
2018-01-11T08:03:32.154Z,69.10
2018-01-11T08:04:32.438Z,69.60
2018-01-11T08:05:32.230Z,69.10
2018-01-11T08:06:32.263Z,70.00
2018-01-11T08:07:32.313Z,71.10
2018-01-11T08:08:32.311Z,70.20
2018-01-11T08:09:32.328Z,69.00
2018-01-11T08:10:32.373Z,66.20
2018-01-11T08:11:32.407Z,66.30
2018-01-11T08:12:32.465Z,65.30
2018-01-11T08:13:32.474Z,67.90
2018-01-11T08:14:32.516Z,66.80
2018-01-11T08:15:32.543Z,63.40
2018-01-11T08:16:32.593Z,65.30
2018-01-11T08:17:32.617Z,63.50
2018-01-11T08:18:32.628Z,66.50
2018-01-11T08:19:32.674Z,67.50
2018-01-11T08:20:32.731Z,68.20
2018-01-11T08:21:32.739Z,66.40
2018-01-11T08:22:32.723Z,72.20
2018-01-11T08:23:32.769Z,68.50
2018-01-11T08:24:32.788Z,69.70
2018-01-11T08:25:32.827Z,68.10
2018-01-11T08:26:32.865Z,68.00
2018-01-11T08:27:32.907Z,69.20
2018-01-11T08:28:32.945Z,67.40
2018-01-11T08:29:32.984Z,66.40
2018-01-11T08:30:33.034Z,69.20
2018-01-11T08:32:33.052Z,67.20
2018-01-11T08:33:33.120Z,67.20
2018-01-11T08:34:33.138Z,67.10
2018-01-11T08:35:33.155Z,66.20
2018-01-11T08:36:33.198Z,68.10
2018-01-11T08:37:33.685Z,68.20
2018-01-11T08:38:33.272Z,67.60
2018-01-11T08:39:33.315Z,65.00
2018-01-11T08:40:33.329Z,65.90
2018-01-11T08:41:33.355Z,64.90
2018-01-11T08:42:33.398Z,63.40
2018-01-11T08:43:33.409Z,69.00
2018-01-11T08:44:33.451Z,68.80
2018-01-11T08:45:33.499Z,69.00
2018-01-11T08:46:33.522Z,69.90
2018-01-11T08:47:33.569Z,68.60
2018-01-11T08:48:33.595Z,68.50
2018-01-11T08:49:33.617Z,68.60
2018-01-11T08:50:33.653Z,71.10
2018-01-11T08:51:33.707Z,73.50
2018-01-11T08:52:33.733Z,69.30
2018-01-11T08:53:33.760Z,68.80
2018-01-11T08:54:33.832Z,69.20
2018-01-11T08:55:33.840Z,68.10
2018-01-11T08:56:33.875Z,69.40
2018-01-11T08:57:33.894Z,69.90
2018-01-11T08:58:33.928Z,69.20
2018-01-11T08:59:33.978Z,72.60
2018-01-11T09:00:34.024Z,71.20
2018-01-11T09:01:34.035Z,71.50
2018-01-11T09:02:34.083Z,73.80
2018-01-11T09:03:35.089Z,73.50
2018-01-11T09:04:34.164Z,74.10
2018-01-11T09:05:34.445Z,72.80
2018-01-11T09:06:34.233Z,75.20
2018-01-11T09:07:34.250Z,75.70
2018-01-11T09:08:34.254Z,77.80
2018-01-11T09:09:34.308Z,73.90
2018-01-11T09:10:34.323Z,76.50
2018-01-11T09:11:34.373Z,74.90
2018-01-11T09:12:34.397Z,73.20
2018-01-11T09:13:34.416Z,73.60
2018-01-11T09:14:34.447Z,76.30
2018-01-11T09:15:34.696Z,71.70
2018-01-11T09:16:34.535Z,74.30
2018-01-11T09:17:34.569Z,75.10
2018-01-11T09:18:34.596Z,73.40
2018-01-11T09:19:34.640Z,74.10
2018-01-11T09:20:34.658Z,73.10
2018-01-11T09:21:34.710Z,74.20
2018-01-11T09:22:34.724Z,70.00
2018-01-11T09:23:34.779Z,68.90
2018-01-11T09:24:35.113Z,68.00
2018-01-11T09:25:34.827Z,66.30
2018-01-11T09:26:34.855Z,66.60
2018-01-11T09:27:34.882Z,66.30
2018-01-11T09:28:34.918Z,68.50
2018-01-11T09:29:34.956Z,66.70
2018-01-11T09:30:34.988Z,64.00
2018-01-11T09:31:35.048Z,61.80
2018-01-11T09:32:35.058Z,59.60
2018-01-11T09:33:35.125Z,60.70
2018-01-11T09:34:35.153Z,61.30
2018-01-11T09:35:35.202Z,61.20
2018-01-11T09:36:35.222Z,62.20
2018-01-11T09:37:35.214Z,60.90
2018-01-11T09:38:35.886Z,59.40
2018-01-11T09:39:35.340Z,58.00
2018-01-11T09:40:35.442Z,58.60
2018-01-11T09:41:35.372Z,59.20
2018-01-11T09:42:35.380Z,59.50
2018-01-11T09:43:35.442Z,60.80
2018-01-11T09:44:35.471Z,59.20
2018-01-11T09:45:35.507Z,60.20
2018-01-11T09:46:35.536Z,60.20
2018-01-11T09:47:35.546Z,61.90
2018-01-11T09:48:35.614Z,61.20
2018-01-11T09:49:35.658Z,60.40
2018-01-11T09:50:35.668Z,60.20
2018-01-11T09:51:35.687Z,60.90
2018-01-11T09:52:35.689Z,61.40
2018-01-11T09:53:35.737Z,59.70
2018-01-11T09:54:35.769Z,57.60
2018-01-11T09:55:35.808Z,57.50
2018-01-11T09:56:35.816Z,56.90
2018-01-11T09:57:35.868Z,54.20
2018-01-11T09:58:35.886Z,55.50
2018-01-11T09:59:35.916Z,55.80
2018-01-11T10:00:35.969Z,55.80
2018-01-11T10:01:35.990Z,57.20
2018-01-11T10:02:36.078Z,55.90
2018-01-11T10:03:36.073Z,55.30
2018-01-11T10:04:36.084Z,56.00
2018-01-11T10:05:36.124Z,59.40
2018-01-11T10:06:36.172Z,66.50
2018-01-11T10:07:36.218Z,69.00
2018-01-11T10:08:36.220Z,67.00
2018-01-11T10:09:36.263Z,64.80
2018-01-11T10:10:36.279Z,66.10
2018-01-11T10:11:36.339Z,65.80
2018-01-11T10:12:36.590Z,69.30
2018-01-11T10:13:36.382Z,68.30
2018-01-11T10:14:36.423Z,68.20
2018-01-11T10:15:36.454Z,69.30
2018-01-11T10:16:36.510Z,65.80
2018-01-11T10:17:36.551Z,66.10
2018-01-11T10:18:36.603Z,72.50
2018-01-11T10:19:36.674Z,79.00
2018-01-11T10:20:36.690Z,81.50
2018-01-11T10:21:36.998Z,81.10
2018-01-11T10:22:36.738Z,79.90
2018-01-11T10:23:36.944Z,75.60
2018-01-11T10:24:36.987Z,74.40
2018-01-11T10:25:36.820Z,71.50
2018-01-11T10:26:36.902Z,73.30
2018-01-11T10:27:36.966Z,77.70
2018-01-11T10:28:36.960Z,71.70
2018-01-11T10:29:36.935Z,73.30
2018-01-11T10:30:36.957Z,87.80
2018-01-11T10:31:37.241Z,100.30
2018-01-11T10:32:38.434Z,108.00
2018-01-11T10:33:37.068Z,106.40
2018-01-11T10:34:37.072Z,114.00
2018-01-11T10:35:37.116Z,128.60
2018-01-11T10:37:37.187Z,299.60
2018-01-11T10:38:37.219Z,348.70
2018-01-11T10:39:37.247Z,314.90
2018-01-11T10:40:37.290Z,276.40
2018-01-11T10:41:37.319Z,261.20
2018-01-11T10:42:37.347Z,236.30
2018-01-11T10:43:37.404Z,288.50
2018-01-11T10:44:37.419Z,310.80
2018-01-11T10:45:37.447Z,311.30
2018-01-11T10:46:37.498Z,320.40
2018-01-11T10:47:37.523Z,316.10
2018-01-11T10:48:37.564Z,345.00
2018-01-11T10:49:37.595Z,342.40
2018-01-11T10:50:37.623Z,337.60
2018-01-11T10:51:37.691Z,346.10
2018-01-11T10:52:37.721Z,364.70
2018-01-11T10:53:37.751Z,370.50
2018-01-11T10:54:37.804Z,375.30
2018-01-11T10:55:37.826Z,378.60
2018-01-11T10:56:37.824Z,370.50
2018-01-11T10:57:37.874Z,359.10
2018-01-11T10:58:37.922Z,350.90
2018-01-11T10:59:37.968Z,355.30
2018-01-11T11:00:38.461Z,344.80
2018-01-11T11:01:38.023Z,340.80
2018-01-11T11:02:38.093Z,330.90
2018-01-11T11:03:38.104Z,316.20
2018-01-11T11:04:38.147Z,298.50
2018-01-11T11:05:38.189Z,286.10
2018-01-11T11:06:38.218Z,285.80
2018-01-11T11:07:38.232Z,285.60
2018-01-11T11:08:38.619Z,278.20
2018-01-11T11:09:38.529Z,262.10
2018-01-11T11:10:38.376Z,253.90
2018-01-11T11:11:38.366Z,249.50
2018-01-11T11:12:38.423Z,235.20
2018-01-11T11:13:38.438Z,232.20
2018-01-11T11:14:38.491Z,233.60
2018-01-11T11:15:38.499Z,226.00
2018-01-11T11:16:38.551Z,215.00
2018-01-11T11:17:38.620Z,207.80
2018-01-11T11:18:38.606Z,203.70
2018-01-11T11:19:38.645Z,203.00
2018-01-11T11:20:38.686Z,194.40
2018-01-11T11:21:38.726Z,191.50
2018-01-11T11:22:38.724Z,185.90
2018-01-11T11:23:38.766Z,179.80
2018-01-11T11:24:38.797Z,173.70
2018-01-11T11:26:38.872Z,159.00
2018-01-11T11:27:38.902Z,152.00
2018-01-11T11:28:38.947Z,145.50
2018-01-11T11:29:39.034Z,142.30
2018-01-11T11:30:39.016Z,139.10
2018-01-11T11:31:39.065Z,129.60
2018-01-11T11:32:39.077Z,117.50
2018-01-11T11:33:39.114Z,115.50
2018-01-11T11:34:39.136Z,106.40
2018-01-11T11:35:39.163Z,101.30
2018-01-11T11:36:39.214Z,98.70
2018-01-11T11:37:39.229Z,96.50
2018-01-11T11:38:39.273Z,91.10
2018-01-11T11:39:39.291Z,90.30
2018-01-11T11:40:39.323Z,88.90
2018-01-11T11:41:39.360Z,85.20
2018-01-11T11:42:39.392Z,83.40
2018-01-11T11:43:39.433Z,78.30
2018-01-11T11:44:39.472Z,75.90
2018-01-11T11:45:39.482Z,73.10
2018-01-11T11:46:39.521Z,71.90
2018-01-11T11:47:39.552Z,69.40
2018-01-11T11:48:39.573Z,65.90
2018-01-11T11:49:39.621Z,67.20
2018-01-11T11:50:39.631Z,64.50
2018-01-11T11:51:39.677Z,64.30
2018-01-11T11:52:39.711Z,63.90
2018-01-11T11:53:39.752Z,64.20
2018-01-11T11:54:39.845Z,64.30
2018-01-11T11:55:39.786Z,63.00
2018-01-11T11:56:39.843Z,68.30
2018-01-11T11:57:39.892Z,69.10
2018-01-11T11:58:40.242Z,64.70
2018-01-11T12:00:40.120Z,68.90
2018-01-11T12:01:40.008Z,66.20
2018-01-11T12:02:40.046Z,66.70
2018-01-11T12:03:40.079Z,64.70
2018-01-11T12:04:40.124Z,66.40
2018-01-11T12:05:40.154Z,68.00
2018-01-11T12:06:40.182Z,69.50
2018-01-11T12:07:40.236Z,68.10
2018-01-11T12:08:40.252Z,68.20
2018-01-11T12:09:40.279Z,66.60
2018-01-11T12:10:40.330Z,66.70
2018-01-11T12:11:40.358Z,69.10
2018-01-11T12:13:40.420Z,73.30
2018-01-11T12:14:40.474Z,70.80
2018-01-11T12:15:40.776Z,73.70
2018-01-11T12:16:40.525Z,76.70
2018-01-11T12:17:40.554Z,77.00
2018-01-11T12:18:40.567Z,72.10
2018-01-11T12:19:40.617Z,78.70
2018-01-11T12:20:40.669Z,80.00
2018-01-11T12:21:40.683Z,84.20
2018-01-11T12:22:40.713Z,83.00
2018-01-11T12:23:40.780Z,82.50
2018-01-11T12:24:40.772Z,84.00
2018-01-11T12:25:40.805Z,87.40
2018-01-11T12:26:40.848Z,87.70
2018-01-11T12:27:40.879Z,88.80
2018-01-11T12:28:40.921Z,84.60
2018-01-11T12:29:40.969Z,87.60
2018-01-11T12:30:40.982Z,84.00
2018-01-11T12:31:41.009Z,86.50
2018-01-11T12:32:41.035Z,86.20
2018-01-11T12:33:41.063Z,88.80
2018-01-11T12:34:41.197Z,87.50
2018-01-11T12:35:41.161Z,88.20
2018-01-11T12:36:41.176Z,89.10
2018-01-11T12:37:41.209Z,95.60
2018-01-11T12:38:41.233Z,93.30
2018-01-11T12:39:41.255Z,92.70
2018-01-11T12:40:41.285Z,100.30
2018-01-11T12:41:41.490Z,101.80
2018-01-11T12:42:41.506Z,94.70
2018-01-11T12:43:41.403Z,97.70
2018-01-11T12:44:41.429Z,101.50
2018-01-11T12:45:41.457Z,101.80
2018-01-11T12:46:41.496Z,97.90
2018-01-11T12:49:41.598Z,98.10
2018-01-11T12:50:41.629Z,101.70
2018-01-11T12:51:41.680Z,95.00
2018-01-11T12:52:41.720Z,93.10
2018-01-11T12:53:41.727Z,94.80
2018-01-11T12:54:41.767Z,93.80
2018-01-11T12:55:41.798Z,94.70
2018-01-11T12:56:41.830Z,95.10
2018-01-11T12:57:41.874Z,94.80
2018-01-11T12:58:42.222Z,93.20
2018-01-11T12:59:41.927Z,92.70
2018-01-11T13:00:41.958Z,95.50